Time;durP1;ratioP1;P1;durP2;ratioP2;P2;SDS_P1;SDS_P2;PMS_P1;PMS_P2;Temp;Humidity;BMP_temperature;BMP_pressure;BME280_temperature;BME280_humidity;BME280_pressure;Samples;Min_cycle;Max_cycle;Signal;HPM_P1;HPM_P2
2023/09/14 00:01:07;;;;;;;34.80;16.60;;;;;;;26.06;57.91;98726.39;67711;1279;1016079;-65
2023/09/14 00:04:10;;;;;;;30.80;16.10;;;;;;;25.87;58.75;98728.21;67681;1279;1016135;-66
2023/09/14 00:07:12;;;;;;;30.10;16.30;;;;;;;25.74;59.72;98735.96;67717;1279;1016527;-66
2023/09/14 00:10:15;;;;;;;30.20;15.40;;;;;;;25.62;60.25;98742.39;67773;1279;1016737;-62
2023/09/14 00:13:17;;;;;;;28.80;14.90;;;;;;;25.58;60.35;98743.50;67756;1279;1016392;-65
2023/09/14 00:16:20;;;;;;;30.90;15.70;;;;;;;25.58;60.33;98745.33;67708;1279;1016708;-63
2023/09/14 00:19:24;;;;;;;30.10;15.90;;;;;;;25.66;60.68;98747.70;67716;1279;1015895;-66
2023/09/14 00:22:26;;;;;;;27.90;15.10;;;;;;;25.64;61.21;98753.35;67715;1279;1016334;-65
2023/09/14 00:25:29;;;;;;;30.40;16.60;;;;;;;25.60;61.32;98751.33;67784;1279;1016466;-64
2023/09/14 00:28:31;;;;;;;28.90;16.50;;;;;;;25.51;61.75;98752.78;67757;1279;1016079;-66
2023/09/14 00:31:34;;;;;;;29.30;16.40;;;;;;;25.45;61.86;98752.67;67731;1279;1016385;-66
2023/09/14 00:34:36;;;;;;;31.10;16.70;;;;;;;25.40;62.71;98754.16;67741;1279;1018692;-65
2023/09/14 00:37:38;;;;;;;30.90;15.90;;;;;;;25.40;62.92;98751.98;67758;1279;1016731;-66
2023/09/14 00:40:41;;;;;;;30.90;17.30;;;;;;;25.29;64.18;98750.11;67726;1279;1016266;-66
2023/09/14 00:43:44;;;;;;;30.10;16.60;;;;;;;25.18;64.80;98755.69;67738;1279;1016413;-66
2023/09/14 00:46:46;;;;;;;29.60;16.70;;;;;;;25.13;65.66;98760.48;67696;1279;1016915;-65
2023/09/14 00:49:49;;;;;;;32.00;17.00;;;;;;;25.11;65.47;98755.64;67769;1279;1016454;-65
2023/09/14 00:52:51;;;;;;;29.60;16.20;;;;;;;25.15;64.82;98758.84;67766;1279;1016619;-64
2023/09/14 00:55:53;;;;;;;30.00;15.90;;;;;;;25.09;65.56;98758.78;67647;1279;1016424;-65
2023/09/14 00:58:56;;;;;;;29.00;16.50;;;;;;;25.08;65.85;98758.58;67711;1279;1016067;-65
2023/09/14 01:01:59;;;;;;;29.30;16.30;;;;;;;25.15;65.57;98761.59;67738;1279;1016903;-66
2023/09/14 01:05:03;;;;;;;31.60;17.30;;;;;;;25.14;64.88;98764.25;67751;1279;1016487;-66
2023/09/14 01:08:05;;;;;;;34.40;17.70;;;;;;;25.11;64.93;98768.69;67782;1279;1016067;-65
2023/09/14 01:11:08;;;;;;;29.60;16.30;;;;;;;25.14;65.11;98768.02;67629;1279;1019024;-65
2023/09/14 01:14:11;;;;;;;30.30;15.60;;;;;;;25.25;64.46;98768.50;67691;1279;1016100;-65
2023/09/14 01:17:14;;;;;;;29.80;16.20;;;;;;;25.23;64.28;98767.79;67711;1279;1015924;-66
2023/09/14 01:20:16;;;;;;;28.10;15.60;;;;;;;25.27;64.03;98768.40;67692;1279;1017918;-66
2023/09/14 01:23:19;;;;;;;30.80;15.30;;;;;;;25.24;64.33;98765.64;67730;1256;1019346;-65
2023/09/14 01:26:21;;;;;;;25.80;14.90;;;;;;;25.16;64.89;98770.38;67762;1279;1016369;-66
2023/09/14 01:29:23;;;;;;;27.00;14.90;;;;;;;25.19;64.77;98768.45;67775;1279;1016489;-66
2023/09/14 01:32:26;;;;;;;28.10;15.20;;;;;;;25.10;65.19;98772.96;67731;1279;1018038;-65
2023/09/14 01:35:29;;;;;;;25.90;13.90;;;;;;;25.12;64.67;98770.39;67714;1256;1016470;-66
2023/09/14 01:38:32;;;;;;;29.60;14.70;;;;;;;25.11;65.23;98773.02;67730;1279;1015963;-66
2023/09/14 01:41:35;;;;;;;27.80;15.00;;;;;;;25.15;64.59;98774.46;67714;1279;1016500;-65
2023/09/14 01:44:37;;;;;;;28.60;13.60;;;;;;;25.08;64.97;98771.45;67713;1279;1016216;-65
2023/09/14 01:47:39;;;;;;;28.10;13.80;;;;;;;25.08;64.68;98772.73;67735;1279;1016469;-66
2023/09/14 01:50:42;;;;;;;26.50;13.60;;;;;;;25.13;64.65;98774.44;67746;1279;1016372;-66
2023/09/14 01:53:44;;;;;;;26.50;14.10;;;;;;;25.19;64.35;98777.02;67721;1279;1016837;-66
2023/09/14 01:56:47;;;;;;;28.20;14.70;;;;;;;25.18;64.06;98777.75;67737;1279;1016027;-66
2023/09/14 01:59:49;;;;;;;32.30;13.90;;;;;;;25.23;63.96;98780.14;67704;1279;1016312;-66
2023/09/14 02:02:51;;;;;;;26.30;13.90;;;;;;;25.32;63.72;98783.17;67742;1279;1016411;-66
2023/09/14 02:05:56;;;;;;;27.60;14.00;;;;;;;25.35;63.71;98787.30;67751;1279;1016715;-66
2023/09/14 02:08:59;;;;;;;26.60;14.30;;;;;;;25.34;63.83;98785.89;67703;1279;1016507;-65
2023/09/14 02:12:01;;;;;;;27.30;15.00;;;;;;;25.53;63.26;98787.41;67709;1279;1016464;-66
2023/09/14 02:15:04;;;;;;;28.60;14.10;;;;;;;25.58;63.11;98788.74;67740;1279;1016514;-66
2023/09/14 02:18:06;;;;;;;28.80;14.80;;;;;;;25.63;62.92;98791.30;67733;1279;1016202;-66
2023/09/14 02:21:10;;;;;;;29.30;14.10;;;;;;;25.64;62.99;98792.27;67698;1279;1016226;-66
2023/09/14 02:24:13;;;;;;;28.10;14.40;;;;;;;25.70;62.81;98797.04;67692;1279;1016169;-66
2023/09/14 02:27:15;;;;;;;30.70;14.90;;;;;;;25.67;62.86;98799.81;67657;1279;1016473;-66
2023/09/14 02:30:18;;;;;;;26.80;14.50;;;;;;;25.66;63.06;98800.02;67712;1279;1016327;-66
2023/09/14 02:33:20;;;;;;;30.40;16.70;;;;;;;25.72;62.45;98799.36;67782;1279;1016711;-66
2023/09/14 02:36:25;;;;;;;29.90;15.00;;;;;;;25.75;62.32;98797.98;67763;1279;1016220;-66
2023/09/14 02:39:27;;;;;;;29.00;14.10;;;;;;;25.63;62.70;98802.26;67704;1279;1016455;-67
2023/09/14 02:42:30;;;;;;;26.30;13.20;;;;;;;25.59;62.81;98803.46;67717;1279;1018043;-66
2023/09/14 02:45:32;;;;;;;24.80;12.60;;;;;;;25.38;63.75;98808.92;67752;1279;1016373;-66
2023/09/14 02:48:34;;;;;;;25.60;12.30;;;;;;;25.32;63.92;98804.48;67775;1279;1016468;-66
2023/09/14 02:51:37;;;;;;;25.90;12.30;;;;;;;25.08;65.11;98808.81;67726;1279;1019882;-66
2023/09/14 02:54:39;;;;;;;27.20;12.40;;;;;;;25.09;65.05;98806.01;67691;1279;1016217;-66
2023/09/14 02:57:42;;;;;;;26.50;12.50;;;;;;;25.14;64.60;98812.27;67665;1279;1015954;-65
2023/09/14 03:00:44;;;;;;;23.60;11.60;;;;;;;25.16;64.48;98811.42;67748;1279;1018525;-66
2023/09/14 03:03:47;;;;;;;25.30;12.40;;;;;;;25.16;64.58;98815.80;67749;1279;1019484;-66
2023/09/14 03:06:49;;;;;;;24.90;12.30;;;;;;;25.08;65.05;98816.28;67733;1279;1015827;-66
2023/09/14 03:09:52;;;;;;;24.20;11.50;;;;;;;25.11;65.09;98819.67;67711;1279;1016461;-66
2023/09/14 03:12:54;;;;;;;24.90;12.00;;;;;;;25.11;64.98;98818.30;67741;1279;1016462;-66
2023/09/14 03:15:57;;;;;;;23.90;11.30;;;;;;;25.10;65.14;98822.54;67754;1279;1015863;-66
2023/09/14 03:18:59;;;;;;;27.40;11.10;;;;;;;25.03;65.80;98822.86;67735;1279;1016399;-66
2023/09/14 03:22:01;;;;;;;25.30;11.60;;;;;;;24.94;66.23;98822.54;67702;1279;1016547;-66
2023/09/14 03:25:04;;;;;;;24.30;11.40;;;;;;;24.94;66.24;98823.58;67696;1279;1016394;-65
2023/09/14 03:28:06;;;;;;;24.80;10.20;;;;;;;24.85;66.70;98824.86;67730;1279;1016012;-64
2023/09/14 03:31:09;;;;;;;24.80;10.60;;;;;;;24.82;66.66;98824.62;67752;1279;1016232;-66
2023/09/14 03:34:11;;;;;;;24.30;11.60;;;;;;;24.99;65.42;98824.39;67701;1279;1016333;-66
2023/09/14 03:37:14;;;;;;;26.40;11.10;;;;;;;25.13;64.94;98822.16;67716;1279;1019036;-66
2023/09/14 03:40:16;;;;;;;24.60;11.40;;;;;;;25.08;65.54;98822.55;67701;1279;1016151;-64
2023/09/14 03:43:18;;;;;;;24.20;11.50;;;;;;;25.14;65.19;98823.08;67720;1279;1016239;-66
2023/09/14 03:46:22;;;;;;;24.60;12.00;;;;;;;25.18;64.80;98823.14;67756;1279;1016276;-66
2023/09/14 03:49:25;;;;;;;26.10;12.90;;;;;;;25.28;64.48;98827.00;67752;1279;1016450;-66
2023/09/14 03:52:27;;;;;;;23.60;11.80;;;;;;;25.26;64.73;98832.80;67751;1279;1016426;-66
2023/09/14 03:55:30;;;;;;;26.00;12.70;;;;;;;25.31;64.45;98835.70;67699;1279;1016443;-66
2023/09/14 03:58:32;;;;;;;24.00;12.50;;;;;;;25.22;64.71;98840.08;67738;1279;1016026;-62
2023/09/14 04:01:34;;;;;;;24.70;12.30;;;;;;;24.94;65.84;98844.38;67698;1279;1016283;-66
2023/09/14 04:04:37;;;;;;;24.60;12.30;;;;;;;24.82;65.93;98847.93;67770;1279;1016418;-65
2023/09/14 04:07:39;;;;;;;23.50;12.40;;;;;;;24.78;66.07;98854.48;67742;1279;1016363;-65
2023/09/14 04:10:42;;;;;;;23.40;11.70;;;;;;;24.65;66.19;98862.42;67733;1279;1016910;-66
2023/09/14 04:13:44;;;;;;;25.20;12.50;;;;;;;24.68;66.08;98863.33;67714;1279;1016015;-66
2023/09/14 04:16:47;;;;;;;24.60;11.90;;;;;;;24.62;65.70;98867.23;67654;1279;1016330;-66
2023/09/14 04:19:50;;;;;;;23.60;11.40;;;;;;;24.65;65.61;98872.48;67748;1279;1016131;-66
2023/09/14 04:22:52;;;;;;;23.30;11.20;;;;;;;24.59;65.89;98872.42;67681;1279;1018969;-66
2023/09/14 04:25:55;;;;;;;23.20;11.10;;;;;;;24.58;65.75;98873.20;67737;1279;1018194;-66
2023/09/14 04:28:57;;;;;;;22.00;10.60;;;;;;;24.69;65.09;98875.38;67726;1279;1017243;-59
2023/09/14 04:32:00;;;;;;;23.90;10.80;;;;;;;24.66;65.05;98884.09;67726;1279;1016416;-61
2023/09/14 04:35:03;;;;;;;23.30;10.80;;;;;;;24.63;65.04;98889.35;67704;1279;1016131;-66
2023/09/14 04:38:06;;;;;;;22.10;9.90;;;;;;;24.56;65.27;98893.19;67736;1256;1015600;-66
2023/09/14 04:41:08;;;;;;;23.60;9.40;;;;;;;24.39;65.92;98896.75;67760;1279;1016491;-62
2023/09/14 04:44:11;;;;;;;20.90;8.90;;;;;;;24.32;65.43;98906.65;67714;1279;1016513;-67
2023/09/14 04:47:13;;;;;;;21.40;8.70;;;;;;;24.18;65.65;98910.68;67694;1279;1016511;-67
2023/09/14 04:50:15;;;;;;;;;;;;;;;24.12;65.78;98909.60;67714;1279;1015971;-63
2023/09/14 04:53:18;;;;;;;19.10;7.60;;;;;;;24.05;65.94;98914.48;67754;1279;1016107;-65
2023/09/14 04:56:20;;;;;;;18.60;7.30;;;;;;;24.07;65.73;98914.98;67704;1279;1016306;-67
2023/09/14 04:59:24;;;;;;;21.30;7.80;;;;;;;24.06;65.68;98920.59;67687;1279;1015892;-66
2023/09/14 05:02:27;;;;;;;19.40;7.30;;;;;;;24.05;65.64;98928.44;67751;1279;1016453;-66
2023/09/14 05:05:29;;;;;;;18.20;7.20;;;;;;;23.85;66.13;98928.91;67760;1279;1016501;-67
2023/09/14 05:08:32;;;;;;;;;;;;;;;23.80;66.60;98928.06;67726;1279;1016206;-66
2023/09/14 05:11:34;;;;;;;17.20;6.30;;;;;;;23.92;66.23;98934.92;67754;1279;1016356;-66
2023/09/14 05:14:37;;;;;;;21.30;7.10;;;;;;;23.77;66.79;98937.98;67678;1279;1016469;-63
2023/09/14 05:17:39;;;;;;;18.30;6.60;;;;;;;23.76;66.59;98937.71;67685;1279;1016401;-64
2023/09/14 05:20:41;;;;;;;;;;;;;;;23.77;66.53;98943.67;67751;1279;1016743;-66
2023/09/14 05:23:44;;;;;;;19.20;6.20;;;;;;;23.81;66.10;98947.94;67742;1279;1015689;-66
2023/09/14 05:26:48;;;;;;;18.90;6.50;;;;;;;23.83;66.19;98947.36;67710;1279;1016349;-66
2023/09/14 05:29:51;;;;;;;16.10;6.20;;;;;;;23.85;66.27;98948.87;67671;1279;1015742;-67
2023/09/14 05:32:53;;;;;;;20.30;7.20;;;;;;;23.77;66.56;98954.59;67721;1279;1016349;-66
2023/09/14 05:35:56;;;;;;;17.90;6.30;;;;;;;23.74;66.82;98955.88;67748;1279;1016429;-65
2023/09/14 05:38:58;;;;;;;17.10;6.30;;;;;;;23.83;66.36;98957.35;67752;1279;1016462;-67
2023/09/14 05:42:00;;;;;;;16.90;6.20;;;;;;;23.73;66.68;98964.38;67721;1279;1016397;-67
2023/09/14 05:45:03;;;;;;;17.70;6.40;;;;;;;23.79;66.27;98963.14;67651;1279;1016072;-67
2023/09/14 05:48:05;;;;;;;19.70;6.20;;;;;;;23.83;65.89;98969.05;67749;1279;1016471;-67
2023/09/14 05:51:08;;;;;;;19.00;6.40;;;;;;;23.89;65.77;98971.11;67761;1279;1016473;-67
2023/09/14 05:54:10;;;;;;;17.90;6.20;;;;;;;23.90;65.60;98972.86;67786;1279;1016503;-66
2023/09/14 05:57:14;;;;;;;;;;;;;;;23.95;65.39;98974.17;67702;1279;1017273;-63
2023/09/14 06:00:16;;;;;;;18.60;6.20;;;;;;;23.99;65.13;98984.96;67756;1279;1016522;-66
2023/09/14 06:03:19;;;;;;;17.50;6.20;;;;;;;23.94;65.17;98982.00;67763;1279;1017394;-63
2023/09/14 06:06:21;;;;;;;17.30;6.30;;;;;;;24.01;64.83;98986.72;67547;1279;1183020;-61
2023/09/14 06:09:23;;;;;;;17.90;6.00;;;;;;;24.03;64.82;98992.16;67732;1279;1018107;-67
2023/09/14 06:12:29;;;;;;;15.70;5.50;;;;;;;23.94;65.11;98990.54;67753;1279;1017635;-66
2023/09/14 06:15:32;;;;;;;19.30;6.00;;;;;;;23.88;65.13;98992.44;67678;1279;1016403;-65
2023/09/14 06:18:35;;;;;;;16.30;6.00;;;;;;;23.77;65.56;98998.86;67741;1261;1016224;-65
2023/09/14 06:21:37;;;;;;;;;;;;;;;23.91;65.20;99001.80;67693;1279;1016321;-63
2023/09/14 06:24:39;;;;;;;18.40;5.70;;;;;;;23.95;64.94;99001.35;67685;1279;1016350;-66
2023/09/14 06:27:44;;;;;;;15.70;5.50;;;;;;;24.07;64.38;99004.64;67745;1279;1016507;-66
2023/09/14 06:30:46;;;;;;;18.50;6.20;;;;;;;24.14;64.16;99007.87;67744;1279;1018259;-66
2023/09/14 06:33:50;;;;;;;;;;;;;;;24.12;64.40;99008.33;67774;1279;1016302;-66
2023/09/14 06:36:52;;;;;;;15.80;6.10;;;;;;;24.10;64.54;99007.46;67745;1279;1016398;-66
2023/09/14 06:39:54;;;;;;;;;;;;;;;24.15;64.05;99012.42;67723;1279;1016365;-66
2023/09/14 06:42:57;;;;;;;16.50;5.70;;;;;;;24.26;63.62;99011.72;67722;1279;1016403;-67
2023/09/14 06:45:59;;;;;;;;;;;;;;;24.42;62.94;99010.91;67714;1279;1018654;-66
2023/09/14 06:49:02;;;;;;;17.00;5.60;;;;;;;24.42;62.70;99018.17;67720;1279;1016477;-66
2023/09/14 06:52:04;;;;;;;16.90;5.10;;;;;;;24.43;62.75;99015.73;67791;1279;1016636;-66
2023/09/14 06:55:07;;;;;;;15.80;5.30;;;;;;;24.54;62.33;99022.22;67749;1279;1016467;-67
2023/09/14 06:58:09;;;;;;;13.40;4.50;;;;;;;24.66;62.10;99023.62;67741;1279;1015694;-66
2023/09/14 07:01:12;;;;;;;17.10;4.90;;;;;;;24.78;61.99;99029.83;67702;1279;1016084;-67
2023/09/14 07:04:15;;;;;;;13.20;4.60;;;;;;;24.88;61.96;99027.05;67794;1279;1016988;-67
2023/09/14 07:07:17;;;;;;;12.00;4.20;;;;;;;25.05;61.31;99024.03;67734;1279;1016877;-66
2023/09/14 07:10:20;;;;;;;12.80;4.20;;;;;;;25.07;60.86;99034.11;67709;1279;1016680;-66
2023/09/14 07:13:22;;;;;;;12.50;4.10;;;;;;;25.16;60.94;99030.80;67723;1279;1016544;-67
2023/09/14 07:16:25;;;;;;;13.40;4.00;;;;;;;25.37;60.22;99029.88;67697;1279;1016334;-66
2023/09/14 07:19:27;;;;;;;10.30;3.50;;;;;;;25.66;59.03;99032.47;67750;1279;1015770;-67
2023/09/14 07:22:30;;;;;;;11.30;3.50;;;;;;;25.91;58.60;99033.10;67676;1279;1016397;-65
2023/09/14 07:25:33;;;;;;;8.50;3.40;;;;;;;26.22;57.55;99037.39;67709;1279;1017017;-67
2023/09/14 07:28:35;;;;;;;8.50;3.40;;;;;;;26.27;56.80;99040.72;67773;1279;1016428;-68
2023/09/14 07:44:36;;;;;;;8.20;3.10;;;;;;;26.82;54.36;99050.66;132545;1299;558436;-62
2023/09/14 07:47:38;;;;;;;8.60;3.10;;;;;;;26.86;53.19;99053.98;130756;1289;5317057;-63
2023/09/14 07:50:41;;;;;;;8.10;2.80;;;;;;;26.64;53.59;99060.38;134818;1288;22776;-63
2023/09/14 07:53:44;;;;;;;9.80;3.30;;;;;;;26.41;53.65;99058.02;134817;1288;22536;-62
2023/09/14 07:56:47;;;;;;;8.50;2.90;;;;;;;26.19;53.90;99063.13;135377;1281;22540;-62
2023/09/14 07:59:49;;;;;;;9.80;3.20;;;;;;;25.92;53.92;99062.65;135346;1281;22547;-63
2023/09/14 08:02:52;;;;;;;11.20;3.30;;;;;;;25.79;54.51;99066.16;135317;1281;22530;-63
2023/09/14 08:05:54;;;;;;;11.80;3.40;;;;;;;25.76;55.20;99062.51;135819;1276;22554;-63
2023/09/14 08:08:57;;;;;;;10.00;3.70;;;;;;;25.77;55.58;99064.64;135900;1276;22532;-63
2023/09/14 08:11:59;;;;;;;11.00;3.40;;;;;;;25.84;55.13;99064.39;135879;1276;22533;-62
2023/09/14 08:15:02;;;;;;;12.80;3.40;;;;;;;25.87;55.21;99069.56;135869;1276;22536;-62
2023/09/14 08:18:04;;;;;;;10.00;3.40;;;;;;;25.86;54.91;99073.44;135846;1276;25794;-63
2023/09/14 08:21:07;;;;;;;12.30;3.70;;;;;;;25.85;54.80;99077.55;135912;1276;22670;-62
2023/09/14 08:24:10;;;;;;;9.30;3.30;;;;;;;25.90;54.41;99077.25;135913;1276;25236;-63
2023/09/14 08:27:12;;;;;;;11.00;3.60;;;;;;;25.87;54.32;99078.02;135883;1276;22590;-63
2023/09/14 08:30:15;;;;;;;11.20;3.60;;;;;;;25.78;54.71;99082.17;135864;1276;22640;-63
2023/09/14 08:33:28;;;;;;;11.70;3.50;;;;;;;25.87;54.49;99081.30;135872;1276;22678;-63
2023/09/14 08:36:30;;;;;;;10.40;3.30;;;;;;;25.95;54.28;99080.95;135876;1276;25383;-62
2023/09/14 08:39:33;;;;;;;11.60;3.50;;;;;;;26.14;54.06;99082.46;135849;1276;22530;-63
2023/09/14 08:42:36;;;;;;;9.30;3.40;;;;;;;26.20;53.40;99084.55;135846;1276;22521;-63
2023/09/14 08:45:38;;;;;;;9.30;3.40;;;;;;;26.32;53.59;99083.86;135783;1276;22645;-62
2023/09/14 08:48:42;;;;;;;10.20;3.50;;;;;;;26.42;53.33;99085.64;135801;1276;22627;-63
2023/09/14 08:51:45;;;;;;;9.90;2.90;;;;;;;26.51;53.42;99084.08;135794;1257;23008;-62
2023/09/14 08:54:49;;;;;;;10.60;3.50;;;;;;;26.62;52.49;99080.02;135809;1276;22536;-62
2023/09/14 08:57:52;;;;;;;10.30;3.50;;;;;;;26.76;52.69;99086.88;135815;1276;22534;-63
2023/09/14 09:00:54;;;;;;;9.10;3.60;;;;;;;26.77;51.39;99083.26;135815;1276;22574;-63
2023/09/14 09:03:57;;;;;;;10.50;3.30;;;;;;;26.76;52.19;99085.77;135798;1276;22528;-63
2023/09/14 09:06:59;;;;;;;9.40;3.10;;;;;;;26.72;51.83;99091.46;135819;1276;25411;-63
2023/09/14 09:10:02;;;;;;;8.30;3.30;;;;;;;26.56;51.42;99091.61;135841;1266;24375;-63
2023/09/14 09:13:04;;;;;;;10.20;3.30;;;;;;;26.43;51.49;99090.14;135834;1276;22523;-63
2023/09/14 09:16:06;;;;;;;10.00;3.60;;;;;;;26.73;51.34;99094.77;135846;1276;22538;-63
2023/09/14 09:19:10;;;;;;;9.00;3.50;;;;;;;26.92;51.55;99095.06;135883;1276;22542;-63
2023/09/14 09:22:13;;;;;;;10.40;3.50;;;;;;;27.03;51.38;99093.95;135858;1276;22529;-63
2023/09/14 09:25:19;;;;;;;10.50;3.50;;;;;;;27.03;51.03;99096.57;135857;1276;22519;-63
2023/09/14 09:28:21;;;;;;;9.30;3.30;;;;;;;26.97;50.56;99095.39;135831;1276;22527;-63
2023/09/14 09:31:24;;;;;;;9.20;3.50;;;;;;;26.77;50.94;99095.50;135795;1276;22530;-62
2023/09/14 09:34:28;;;;;;;9.50;3.50;;;;;;;26.78;50.79;99094.82;135822;1276;22534;-63
2023/09/14 09:37:30;;;;;;;10.00;3.70;;;;;;;26.65;50.83;99096.27;135830;1276;22548;-63
2023/09/14 09:40:33;;;;;;;11.60;4.00;;;;;;;26.28;51.23;99103.64;135841;1276;22528;-63
2023/09/14 09:43:35;;;;;;;11.60;3.70;;;;;;;26.19;51.88;99101.83;135852;1276;22596;-63
2023/09/14 09:46:38;;;;;;;13.90;4.20;;;;;;;26.35;51.91;99105.55;135800;1276;22564;-62
2023/09/14 09:49:40;;;;;;;13.60;4.60;;;;;;;26.47;51.76;99104.55;135859;1276;22541;-61
2023/09/14 09:52:43;;;;;;;17.10;4.70;;;;;;;26.90;51.51;99106.42;135833;1276;22537;-62
2023/09/14 09:55:46;;;;;;;16.70;5.50;;;;;;;27.34;51.16;99108.10;135819;1276;22527;-62
2023/09/14 09:58:49;;;;;;;15.10;5.60;;;;;;;27.56;49.98;99106.20;135851;1276;24216;-62
2023/09/14 10:01:51;;;;;;;16.90;6.20;;;;;;;27.59;50.02;99101.08;135845;1276;22527;-62
2023/09/14 10:04:54;;;;;;;17.30;5.90;;;;;;;27.38;50.81;99101.92;135807;1276;24457;-62
2023/09/14 10:07:56;;;;;;;15.40;5.80;;;;;;;27.09;50.56;99112.69;135848;1276;23923;-62
2023/09/14 10:10:59;;;;;;;17.90;6.20;;;;;;;26.94;51.02;99113.59;135809;1276;22546;-63
2023/09/14 10:14:02;;;;;;;18.50;6.10;;;;;;;26.67;51.65;99117.48;135826;1276;23890;-62
2023/09/14 10:17:05;;;;;;;18.80;6.70;;;;;;;26.55;52.18;99124.95;135844;1276;25295;-62
2023/09/14 10:20:08;;;;;;;17.40;6.50;;;;;;;26.40;53.11;99127.14;135797;1276;22754;-63
2023/09/14 10:23:11;;;;;;;17.80;6.20;;;;;;;26.38;53.11;99129.17;135790;1276;22562;-62
2023/09/14 10:26:13;;;;;;;18.00;6.50;;;;;;;26.31;53.54;99131.30;135792;1276;22547;-63
2023/09/14 10:29:16;;;;;;;16.70;6.60;;;;;;;26.28;53.35;99131.63;135783;1276;22611;-62
2023/09/14 10:32:18;;;;;;;18.00;6.50;;;;;;;26.12;53.22;99135.55;135787;1257;22535;-62
2023/09/14 10:35:21;;;;;;;17.70;6.50;;;;;;;25.98;53.69;99140.24;135777;1276;22533;-63
2023/09/14 10:38:24;;;;;;;16.60;6.00;;;;;;;25.99;53.35;99143.15;135781;1276;24203;-62
2023/09/14 10:41:27;;;;;;;18.50;6.00;;;;;;;25.98;53.17;99137.78;135811;1276;22585;-62
2023/09/14 10:44:30;;;;;;;17.90;6.80;;;;;;;26.18;53.14;99137.50;135772;1276;22650;-62
2023/09/14 10:47:36;;;;;;;18.20;6.90;;;;;;;26.41;52.47;99139.48;135788;1276;22552;-62
2023/09/14 10:50:39;;;;;;;16.90;5.60;;;;;;;26.56;51.97;99137.71;135802;1276;22552;-62
2023/09/14 10:53:41;;;;;;;18.40;6.30;;;;;;;26.77;51.89;99136.96;135818;1276;22675;-62
2023/09/14 10:56:44;;;;;;;18.10;6.60;;;;;;;26.86;51.30;99133.11;135821;1276;22542;-63
2023/09/14 10:59:46;;;;;;;18.90;6.80;;;;;;;26.79;51.53;99136.91;135812;1276;22541;-62
2023/09/14 11:02:49;;;;;;;18.00;6.60;;;;;;;26.80;51.31;99133.12;135786;1276;22578;-62
2023/09/14 11:05:52;;;;;;;15.90;5.60;;;;;;;26.99;50.97;99135.16;135818;1276;25577;-62
2023/09/14 11:08:54;;;;;;;16.20;5.60;;;;;;;26.89;51.33;99135.97;135832;1276;22553;-62
2023/09/14 11:11:57;;;;;;;17.70;6.10;;;;;;;26.99;50.97;99135.74;135805;1276;22529;-62
2023/09/14 11:14:59;;;;;;;18.90;6.50;;;;;;;27.04;50.69;99135.04;135804;1276;22537;-62
2023/09/14 11:18:02;;;;;;;17.40;6.40;;;;;;;26.94;50.71;99131.93;135835;1276;25731;-62
2023/09/14 11:21:04;;;;;;;17.70;6.20;;;;;;;27.04;50.63;99133.71;135817;1276;22666;-62
2023/09/14 11:24:07;;;;;;;17.10;5.50;;;;;;;27.37;50.72;99133.23;135776;1276;22757;-63
2023/09/14 11:27:09;;;;;;;13.80;5.00;;;;;;;27.60;49.80;99140.77;135836;1276;22548;-62
2023/09/14 11:30:12;;;;;;;15.90;5.50;;;;;;;27.72;49.25;99139.78;135784;1276;24142;-62
2023/09/14 11:33:15;;;;;;;18.20;5.20;;;;;;;27.80;48.72;99135.66;135778;1276;22545;-62
2023/09/14 11:36:17;;;;;;;15.80;5.20;;;;;;;27.86;49.01;99133.12;135777;1276;22568;-62
2023/09/14 11:39:19;;;;;;;16.00;4.90;;;;;;;28.12;48.74;99132.26;135822;1276;22534;-62
2023/09/14 11:42:23;;;;;;;16.30;5.10;;;;;;;28.31;48.50;99133.04;135780;1276;22527;-62
2023/09/14 11:45:26;;;;;;;14.00;5.00;;;;;;;28.37;47.93;99135.77;135832;1254;22526;-63
2023/09/14 11:48:29;;;;;;;14.40;4.80;;;;;;;28.37;47.98;99131.98;135831;1276;25406;-62
2023/09/14 11:51:31;;;;;;;16.80;5.90;;;;;;;28.54;48.11;99135.77;135761;1276;22554;-62
2023/09/14 11:54:35;;;;;;;15.60;5.00;;;;;;;28.72;47.89;99141.20;135834;1257;22541;-62
2023/09/14 11:57:37;;;;;;;13.90;5.10;;;;;;;28.73;47.04;99140.35;135859;1260;24211;-62
2023/09/14 12:00:40;;;;;;;15.00;5.40;;;;;;;28.63;48.09;99139.73;135850;1276;22534;-62
2023/09/14 12:03:43;;;;;;;16.10;5.80;;;;;;;28.58;47.18;99143.96;135867;1276;22646;-62
2023/09/14 12:06:46;;;;;;;16.90;5.70;;;;;;;28.15;47.52;99147.69;135848;1276;22537;-63
2023/09/14 12:09:48;;;;;;;18.00;5.80;;;;;;;27.72;48.24;99149.11;135830;1276;22640;-63
2023/09/14 12:12:51;;;;;;;15.60;4.80;;;;;;;27.53;48.91;99145.23;135846;1276;22527;-63
2023/09/14 12:15:53;;;;;;;13.70;4.60;;;;;;;27.37;48.70;99148.88;135786;1276;22533;-63
2023/09/14 12:18:56;;;;;;;14.50;4.50;;;;;;;26.96;49.50;99154.46;135815;1276;22526;-62
2023/09/14 12:21:59;;;;;;;12.70;4.90;;;;;;;26.55;50.72;99157.92;135815;1276;22545;-62
2023/09/14 12:25:03;;;;;;;19.80;5.70;;;;;;;26.52;50.59;99158.98;135826;1276;22529;-62
2023/09/14 12:28:06;;;;;;;14.20;4.80;;;;;;;26.39;51.00;99159.55;135855;1259;24330;-62
2023/09/14 12:31:08;;;;;;;13.40;4.40;;;;;;;26.46;50.56;99155.75;135801;1276;22607;-62
2023/09/14 12:34:11;;;;;;;14.00;4.40;;;;;;;26.51;50.78;99159.86;135891;1276;22534;-63
2023/09/14 12:37:13;;;;;;;16.90;4.90;;;;;;;26.60;51.07;99159.77;135873;1276;24205;-62
2023/09/14 12:40:16;;;;;;;14.60;4.70;;;;;;;26.62;50.86;99161.33;135857;1276;26994;-63
2023/09/14 12:43:19;;;;;;;13.90;4.80;;;;;;;26.78;50.43;99156.86;135849;1266;22567;-62
2023/09/14 12:46:23;;;;;;;14.40;4.80;;;;;;;26.85;50.11;99152.16;135846;1276;25213;-62
2023/09/14 12:49:26;;;;;;;12.10;4.50;;;;;;;26.88;49.77;99155.46;135841;1276;22543;-63
2023/09/14 12:52:28;;;;;;;13.60;4.40;;;;;;;26.84;49.73;99151.38;135782;1276;22552;-62
2023/09/14 12:55:31;;;;;;;11.50;4.20;;;;;;;26.84;50.61;99151.70;135790;1276;22537;-62
2023/09/14 12:58:34;;;;;;;11.70;3.80;;;;;;;27.05;49.69;99153.39;135838;1276;22550;-62
2023/09/14 13:01:38;;;;;;;10.60;3.70;;;;;;;27.12;48.75;99157.52;135906;1276;22539;-62
2023/09/14 13:04:41;;;;;;;13.80;3.90;;;;;;;27.13;48.32;99157.23;135813;1276;25471;-62
2023/09/14 13:07:43;;;;;;;9.30;3.50;;;;;;;27.41;48.52;99153.98;135872;1276;22549;-62
2023/09/14 13:10:46;;;;;;;9.80;3.50;;;;;;;27.62;47.15;99156.35;135772;1276;22577;-62
2023/09/14 13:13:48;;;;;;;7.50;3.20;;;;;;;27.91;47.40;99156.38;135813;1276;22534;-62
2023/09/14 13:16:51;;;;;;;11.00;3.50;;;;;;;28.16;45.94;99160.93;135786;1276;22559;-62
2023/09/14 13:19:53;;;;;;;10.40;3.50;;;;;;;28.16;45.80;99160.77;135802;1276;22526;-62
2023/09/14 13:22:56;;;;;;;8.70;3.30;;;;;;;27.97;46.12;99161.93;135784;1276;22526;-62
2023/09/14 13:25:58;;;;;;;11.50;3.40;;;;;;;27.83;45.96;99164.27;135861;1257;22510;-62
2023/09/14 13:29:01;;;;;;;9.00;3.10;;;;;;;27.52;45.48;99167.26;135862;1276;25320;-62
2023/09/14 13:32:04;;;;;;;7.20;2.80;;;;;;;27.41;45.56;99171.84;135810;1276;24385;-62
2023/09/14 13:35:07;;;;;;;6.20;2.60;;;;;;;27.31;45.78;99174.39;135805;1276;22534;-62
2023/09/14 13:38:09;;;;;;;10.30;3.00;;;;;;;27.30;45.45;99175.70;135801;1276;22579;-62
2023/09/14 13:41:13;;;;;;;9.80;2.90;;;;;;;27.34;45.69;99172.14;135768;1276;22544;-62
2023/09/14 13:44:16;;;;;;;6.80;2.40;;;;;;;27.52;45.67;99172.67;135775;1260;22632;-62
2023/09/14 13:47:18;;;;;;;6.90;2.30;;;;;;;27.68;44.98;99172.38;135788;1276;25252;-62
2023/09/14 13:50:21;;;;;;;7.70;2.50;;;;;;;27.46;44.12;99174.08;135786;1276;22551;-62
2023/09/14 13:53:24;;;;;;;7.60;2.40;;;;;;;27.43;44.92;99176.84;135771;1276;27334;-62
2023/09/14 13:56:26;;;;;;;8.80;2.30;;;;;;;27.34;44.83;99175.80;135783;1276;22521;-62
2023/09/14 13:59:29;;;;;;;5.60;2.10;;;;;;;27.15;45.42;99180.52;135789;1276;22526;-62
2023/09/14 14:02:31;;;;;;;5.80;2.00;;;;;;;26.80;45.58;99180.67;135779;1276;22533;-62
2023/09/14 14:05:34;;;;;;;5.30;1.90;;;;;;;26.52;46.25;99191.59;135792;1276;22639;-62
2023/09/14 14:08:37;;;;;;;6.50;2.20;;;;;;;26.50;46.61;99189.40;135801;1276;22519;-62